Myra Eckstein — WDF9473 — position and weather

sailwx.info

Track history (hours):
 
Tides and Currents Weather Stations Pressure Air Temp Water Temp Dewpoint Dewpoint Depression Visibility Wind Speed Wind Dir Waves Ship Positions

Myra Eckstein

Owner: Marquette Transportation Co. LLC, Paducah, KY. More information available from US FCC via Universal Licensing System and Coast Guard Vessel Documentation Center.

Last reported at 2017-Jan-08 20:22 UTC. Time now 2017-Jan-18 16:07 UTC.
Position N 32°39' W 091°09'.
Warning: this ship's position is 9 days out of date.

Length 47 m; draft 3.5 m.

Type: Towing. MMSI: 367505510.

Date/timePositionNaut miles runAvg speedWind from/ knotsBaromVisibWave heightAir tempDewpointWater temp
2017-Jan-08 20:22N 32°39' W 091°09'2 3.1
2017-Jan-08 19:34N 32°36' W 091°09'2 1.6
2017-Jan-08 18:31N 32°35' W 091°08'3 3.1
2017-Jan-08 17:33N 32°33' W 091°06'4 4.1
2017-Jan-08 16:33N 32°28' W 091°07'4 3.8
2017-Jan-08 15:34N 32°26' W 091°03'4 3.6
2017-Jan-08 14:34N 32°24' W 090°60'3 2.9
2017-Jan-08 13:33N 32°21' W 090°59'4 4.0
2017-Jan-08 12:34N 32°20' W 090°54'3 2.8
2017-Jan-08 11:34N 32°18' W 090°56'0 0.1
2017-Jan-08 10:34N 32°18' W 090°56'0 0.0
2017-Jan-08 09:34N 32°18' W 090°56'0 0.0
2017-Jan-08 08:33N 32°18' W 090°56'0 0.0
2017-Jan-08 07:34N 32°18' W 090°56'0 0.0
2017-Jan-08 06:34N 32°18' W 090°56'0 0.0
2017-Jan-08 05:33N 32°18' W 090°56'0 0.0
2017-Jan-08 04:33N 32°18' W 090°56'0 0.0
2017-Jan-08 03:34N 32°18' W 090°56'0 0.0
2017-Jan-08 02:34N 32°18' W 090°56'0 0.0
2017-Jan-08 01:34N 32°18' W 090°56'3 3.3
2017-Jan-08 00:33N 32°15' W 090°58'2 1.7
2017-Jan-07 23:34N 32°14' W 090°59'4 4.0
2017-Jan-07 22:31N 32°10' W 091°00'3 2.9
2017-Jan-07 21:21N 32°07' W 091°03'3 3.3
2017-Jan-07 20:26N 32°07' W 091°07'  
2017-Jan-03 03:19N 29°58' W 090°16'2 2.4
2017-Jan-03 02:29N 29°58' W 090°14'0 0.2
2017-Jan-03 01:20N 29°58' W 090°14'0 0.0
2017-Jan-03 00:17N 29°58' W 090°14'0 0.0
2017-Jan-02 23:19N 29°58' W 090°14'0 0.0
2017-Jan-02 22:33N 29°58' W 090°14'0 0.0
2017-Jan-02 21:33N 29°58' W 090°14'0 0.0
2017-Jan-02 20:33N 29°58' W 090°14'0 0.0
2017-Jan-02 19:30N 29°58' W 090°14'  
Track history (hours):
 
Tides and Currents Weather Stations Pressure Air Temp Water Temp Dewpoint Dewpoint Depression Visibility Wind Speed Wind Dir Waves Ship Positions

Myra Eckstein

Owner: Marquette Transportation Co. LLC, Paducah, KY. More information available from US FCC via Universal Licensing System and Coast Guard Vessel Documentation Center.

Last reported at 2017-Jan-08 20:22 UTC. Time now 2017-Jan-18 16:07 UTC.
Position N 32°39' W 091°09'.
Warning: this ship's position is 9 days out of date.

Length 47 m; draft 3.5 m.

Type: Towing. MMSI: 367505510.

Date/timePositionNaut miles runAvg speedWind from/ knotsBaromVisibWave heightAir tempDewpointWater temp
2017-Jan-08 20:22N 32°39' W 091°09'2 3.1
2017-Jan-08 19:34N 32°36' W 091°09'2 1.6
2017-Jan-08 18:31N 32°35' W 091°08'3 3.1
2017-Jan-08 17:33N 32°33' W 091°06'4 4.1
2017-Jan-08 16:33N 32°28' W 091°07'4 3.8
2017-Jan-08 15:34N 32°26' W 091°03'4 3.6
2017-Jan-08 14:34N 32°24' W 090°60'3 2.9
2017-Jan-08 13:33N 32°21' W 090°59'4 4.0
2017-Jan-08 12:34N 32°20' W 090°54'3 2.8
2017-Jan-08 11:34N 32°18' W 090°56'0 0.1
2017-Jan-08 10:34N 32°18' W 090°56'0 0.0
2017-Jan-08 09:34N 32°18' W 090°56'0 0.0
2017-Jan-08 08:33N 32°18' W 090°56'0 0.0
2017-Jan-08 07:34N 32°18' W 090°56'0 0.0
2017-Jan-08 06:34N 32°18' W 090°56'0 0.0
2017-Jan-08 05:33N 32°18' W 090°56'0 0.0
2017-Jan-08 04:33N 32°18' W 090°56'0 0.0
2017-Jan-08 03:34N 32°18' W 090°56'0 0.0
2017-Jan-08 02:34N 32°18' W 090°56'0 0.0
2017-Jan-08 01:34N 32°18' W 090°56'3 3.3
2017-Jan-08 00:33N 32°15' W 090°58'2 1.7
2017-Jan-07 23:34N 32°14' W 090°59'4 4.0
2017-Jan-07 22:31N 32°10' W 091°00'3 2.9
2017-Jan-07 21:21N 32°07' W 091°03'3 3.3
2017-Jan-07 20:26N 32°07' W 091°07'  
2017-Jan-03 03:19N 29°58' W 090°16'2 2.4
2017-Jan-03 02:29N 29°58' W 090°14'0 0.2
2017-Jan-03 01:20N 29°58' W 090°14'0 0.0
2017-Jan-03 00:17N 29°58' W 090°14'0 0.0
2017-Jan-02 23:19N 29°58' W 090°14'0 0.0
2017-Jan-02 22:33N 29°58' W 090°14'0 0.0
2017-Jan-02 21:33N 29°58' W 090°14'0 0.0
2017-Jan-02 20:33N 29°58' W 090°14'0 0.0
2017-Jan-02 19:30N 29°58' W 090°14'  

Dump ship's entire track history